createdAt,value
2023-04-13T00:44:30.736Z,6.80
2023-04-13T00:46:57.565Z,7.30
2023-04-13T00:49:24.347Z,7.10
2023-04-13T00:51:51.362Z,7.10
2023-04-13T00:54:19.488Z,7.00
2023-04-13T00:56:46.439Z,7.10
2023-04-13T00:59:14.231Z,7.10
2023-04-13T01:01:50.413Z,7.00
2023-04-13T01:04:20.388Z,7.00
2023-04-13T01:07:27.456Z,7.00
2023-04-13T01:10:17.109Z,7.00
2023-04-13T01:12:50.790Z,7.00
2023-04-13T01:15:19.655Z,7.10
2023-04-13T01:17:58.161Z,7.10
2023-04-13T01:20:27.676Z,7.10
2023-04-13T01:22:56.981Z,7.10
2023-04-13T01:25:50.142Z,7.20
2023-04-13T01:28:18.526Z,7.20
2023-04-13T01:30:47.521Z,7.20
2023-04-13T01:33:14.942Z,7.20
2023-04-13T01:35:42.152Z,7.20
2023-04-13T01:38:10.153Z,7.30
2023-04-13T01:40:40.902Z,7.40
2023-04-13T01:43:08.695Z,7.40
2023-04-13T01:45:49.899Z,7.40
2023-04-13T01:48:34.363Z,7.50
2023-04-13T01:51:11.481Z,7.60
2023-04-13T01:53:42.515Z,7.50
2023-04-13T01:56:10.018Z,7.60
2023-04-13T01:58:37.832Z,7.60
2023-04-13T02:01:07.913Z,7.60
2023-04-13T02:06:03.016Z,7.60
2023-04-13T02:08:32.929Z,7.60
2023-04-13T02:11:00.997Z,7.70
2023-04-13T02:13:28.253Z,7.60
2023-04-13T02:15:55.102Z,7.70
2023-04-13T02:18:23.792Z,7.70
2023-04-13T02:21:01.828Z,7.60
2023-04-13T02:23:29.925Z,7.60
2023-04-13T02:25:56.711Z,7.60
2023-04-13T02:28:23.896Z,7.70
2023-04-13T02:30:51.151Z,7.60
2023-04-13T02:33:19.178Z,7.60
2023-04-13T02:35:46.007Z,7.60
2023-04-13T02:38:12.789Z,7.60
2023-04-13T02:40:39.566Z,7.60
2023-04-13T02:43:06.382Z,7.70
2023-04-13T02:45:33.204Z,7.60
2023-04-13T02:48:00.172Z,7.70
2023-04-13T02:50:28.021Z,7.70
2023-04-13T02:52:54.976Z,7.70
2023-04-13T02:55:21.741Z,7.80
2023-04-13T02:57:49.742Z,7.80
2023-04-13T03:00:16.960Z,7.80
2023-04-13T03:02:44.800Z,7.80
2023-04-13T03:05:13.020Z,7.80
2023-04-13T03:07:39.879Z,7.90
2023-04-13T03:10:09.037Z,7.90
2023-04-13T03:12:36.886Z,7.90
2023-04-13T03:15:11.256Z,7.90
2023-04-13T03:17:41.500Z,7.90
2023-04-13T03:20:13.099Z,7.90
2023-04-13T03:22:40.232Z,7.90
2023-04-13T03:25:08.571Z,7.80
2023-04-13T03:27:36.649Z,7.70
2023-04-13T03:30:04.428Z,7.70
2023-04-13T03:32:32.144Z,7.80
2023-04-13T03:34:59.184Z,7.70
2023-04-13T03:37:30.224Z,7.70
2023-04-13T03:39:58.250Z,7.80
2023-04-13T03:42:25.015Z,7.90
2023-04-13T03:44:52.171Z,7.70
2023-04-13T03:47:19.754Z,7.70
2023-04-13T03:49:46.594Z,7.80
2023-04-13T03:52:13.344Z,7.70
2023-04-13T03:54:40.532Z,7.70
2023-04-13T03:57:09.903Z,7.60
2023-04-13T03:59:36.752Z,7.50
2023-04-13T04:02:03.745Z,7.40
2023-04-13T04:04:30.617Z,7.40
2023-04-13T04:06:58.111Z,7.40
2023-04-13T04:09:25.589Z,7.40
2023-04-13T04:11:52.491Z,7.40
2023-04-13T04:14:20.443Z,7.30
2023-04-13T04:16:47.453Z,7.30
2023-04-13T04:19:14.419Z,7.30
2023-04-13T04:21:44.742Z,7.30
2023-04-13T04:24:12.569Z,7.40
2023-04-13T04:26:40.261Z,7.30
2023-04-13T04:29:09.824Z,7.40
2023-04-13T04:31:43.608Z,7.30
2023-04-13T04:34:11.668Z,7.40
2023-04-13T04:36:41.896Z,7.40
2023-04-13T04:39:09.984Z,7.30
2023-04-13T04:41:37.937Z,7.30
2023-04-13T04:44:08.472Z,7.40
2023-04-13T04:46:38.836Z,7.30
2023-04-13T04:49:05.632Z,7.40
2023-04-13T04:51:33.389Z,7.30
2023-04-13T04:54:02.165Z,7.40
2023-04-13T04:56:29.083Z,7.40
2023-04-13T04:58:55.969Z,7.30
2023-04-13T05:01:26.480Z,7.30
2023-04-13T05:03:53.847Z,7.30
2023-04-13T05:06:20.834Z,7.20
2023-04-13T05:08:47.658Z,7.20
2023-04-13T05:11:14.427Z,7.20
2023-04-13T05:13:41.964Z,7.20
2023-04-13T05:16:10.718Z,7.30
2023-04-13T05:18:45.928Z,7.20
2023-04-13T05:21:14.175Z,7.30
2023-04-13T05:23:44.312Z,7.30
2023-04-13T05:26:12.299Z,7.30
2023-04-13T05:28:39.575Z,7.40
2023-04-13T05:31:11.229Z,7.40
2023-04-13T05:33:38.837Z,7.40
2023-04-13T05:36:06.201Z,7.40
2023-04-13T05:38:33.145Z,7.50
2023-04-13T05:41:00.201Z,7.40
2023-04-13T05:43:27.683Z,7.50
2023-04-13T05:45:54.780Z,7.50
2023-04-13T05:48:21.957Z,7.50
2023-04-13T05:50:48.876Z,7.60
2023-04-13T05:53:15.699Z,7.60
2023-04-13T05:55:44.779Z,7.60
2023-04-13T05:58:12.952Z,7.60
2023-04-13T06:00:40.218Z,7.70
2023-04-13T06:03:08.979Z,7.70
2023-04-13T06:05:36.692Z,7.70
2023-04-13T06:08:03.687Z,7.70
2023-04-13T06:10:30.689Z,7.70
2023-04-13T06:12:57.537Z,7.70
2023-04-13T06:15:24.715Z,7.70
2023-04-13T06:17:53.577Z,7.70
2023-04-13T06:20:21.620Z,7.70
2023-04-13T06:22:49.222Z,7.70
2023-04-13T06:25:16.617Z,7.80
2023-04-13T06:27:44.037Z,7.70
2023-04-13T06:30:12.159Z,7.80
2023-04-13T06:32:39.539Z,7.80
2023-04-13T06:35:06.838Z,7.90
2023-04-13T06:37:35.842Z,7.80
2023-04-13T06:40:12.975Z,7.90
2023-04-13T06:42:41.439Z,7.90
2023-04-13T06:45:12.495Z,7.90
2023-04-13T06:47:43.111Z,8.00
2023-04-13T06:50:13.900Z,8.00
2023-04-13T06:52:43.995Z,8.10
2023-04-13T06:55:10.999Z,8.10
2023-04-13T06:57:37.846Z,8.10
2023-04-13T07:00:12.635Z,8.10
2023-04-13T07:02:49.078Z,8.10
2023-04-13T07:05:16.585Z,8.20
2023-04-13T07:07:43.370Z,8.30
2023-04-13T07:10:10.584Z,8.40
2023-04-13T07:12:39.732Z,8.40
2023-04-13T07:15:07.795Z,8.40
2023-04-13T07:17:35.000Z,8.50
2023-04-13T07:20:01.861Z,8.40
2023-04-13T07:22:35.319Z,8.30
2023-04-13T07:25:02.917Z,8.30
2023-04-13T07:27:29.869Z,8.30
2023-04-13T07:29:56.795Z,8.30
2023-04-13T07:32:30.256Z,8.30
2023-04-13T07:35:02.070Z,8.30
2023-04-13T07:37:29.754Z,8.30
2023-04-13T07:39:56.687Z,8.30
2023-04-13T07:42:24.649Z,8.30
2023-04-13T07:44:54.635Z,8.40
2023-04-13T07:47:21.557Z,8.40
2023-04-13T07:49:48.382Z,8.40
2023-04-13T07:52:15.504Z,8.40
2023-04-13T07:54:42.261Z,8.50
2023-04-13T07:57:10.093Z,8.60
2023-04-13T07:59:36.836Z,8.60
2023-04-13T08:02:04.570Z,8.60
2023-04-13T08:04:31.918Z,8.60
2023-04-13T08:07:03.794Z,8.60
2023-04-13T08:09:36.287Z,8.60
2023-04-13T08:12:04.018Z,8.60
2023-04-13T08:14:31.035Z,8.70
2023-04-13T08:16:58.239Z,8.80
2023-04-13T08:19:25.327Z,8.80
2023-04-13T08:21:52.567Z,8.80
2023-04-13T08:24:22.667Z,8.90
2023-04-13T08:26:49.629Z,9.10
2023-04-13T08:29:16.422Z,9.10
2023-04-13T08:31:43.215Z,9.10
2023-04-13T08:34:11.639Z,9.10
2023-04-13T08:36:38.894Z,9.00
2023-04-13T08:39:06.190Z,9.00
2023-04-13T08:41:36.340Z,9.00
2023-04-13T08:44:08.076Z,8.90
2023-04-13T08:46:35.022Z,8.90
2023-04-13T08:49:03.170Z,9.00
2023-04-13T08:51:32.193Z,8.90
2023-04-13T08:54:00.186Z,9.00
2023-04-13T08:56:42.293Z,9.00
2023-04-13T08:59:13.487Z,9.10
2023-04-13T09:01:41.354Z,9.10
2023-04-13T09:04:11.001Z,9.10
2023-04-13T09:06:42.743Z,9.10
2023-04-13T09:09:11.437Z,9.20
2023-04-13T09:11:49.931Z,9.40
2023-04-13T09:14:22.522Z,9.40
2023-04-13T09:16:51.092Z,9.40
2023-04-13T09:19:36.601Z,9.50
2023-04-13T09:22:14.191Z,9.70
2023-04-13T09:24:44.838Z,9.70
2023-04-13T09:27:23.387Z,9.80
2023-04-13T09:29:52.819Z,9.90
2023-04-13T09:32:25.245Z,10.20
2023-04-13T09:35:24.920Z,10.30
2023-04-13T09:37:56.061Z,10.20
2023-04-13T09:40:23.464Z,10.20
2023-04-13T09:43:05.240Z,10.10
2023-04-13T09:45:45.902Z,10.10
2023-04-13T09:48:22.591Z,10.10
2023-04-13T09:51:04.402Z,10.20
2023-04-13T09:53:48.322Z,10.10
2023-04-13T09:56:16.151Z,10.00
2023-04-13T09:58:44.928Z,10.10
2023-04-13T10:01:12.164Z,10.00
2023-04-13T10:03:39.657Z,10.10
2023-04-13T10:06:08.274Z,10.10
2023-04-13T10:08:38.922Z,10.10
2023-04-13T10:11:13.421Z,10.20
2023-04-13T10:14:02.844Z,10.10
2023-04-13T10:16:54.060Z,10.10
2023-04-13T10:19:30.907Z,10.20
2023-04-13T10:21:58.811Z,10.20
2023-04-13T10:24:26.310Z,10.20
2023-04-13T10:26:55.391Z,10.30
2023-04-13T10:29:29.375Z,10.30
2023-04-13T10:32:02.806Z,10.30
2023-04-13T10:34:32.575Z,10.40
2023-04-13T10:37:03.799Z,10.40
2023-04-13T10:39:33.520Z,10.50
2023-04-13T10:42:03.626Z,10.50
2023-04-13T10:44:43.650Z,10.70
2023-04-13T10:47:11.625Z,10.80
2023-04-13T10:49:39.121Z,10.90
2023-04-13T10:52:06.280Z,10.70
2023-04-13T10:54:35.231Z,10.50
2023-04-13T10:57:04.595Z,10.70
2023-04-13T10:59:59.262Z,10.70
2023-04-13T11:02:32.271Z,10.80
2023-04-13T11:05:00.378Z,10.80
2023-04-13T11:07:28.439Z,10.80
2023-04-13T11:10:04.017Z,10.90
2023-04-13T11:12:31.289Z,10.90
2023-04-13T11:14:59.160Z,11.00
2023-04-13T11:17:26.242Z,11.10
2023-04-13T11:19:55.498Z,11.10
2023-04-13T11:22:24.376Z,11.20
2023-04-13T11:24:51.839Z,11.20
2023-04-13T11:27:23.449Z,11.20
2023-04-13T11:30:07.668Z,11.40
2023-04-13T11:32:35.187Z,11.20
2023-04-13T11:35:15.117Z,11.20
2023-04-13T11:37:44.427Z,11.20
2023-04-13T11:40:21.478Z,11.20
2023-04-13T11:42:58.905Z,11.40
2023-04-13T11:45:28.709Z,11.20
2023-04-13T11:47:57.182Z,11.30
2023-04-13T11:50:24.302Z,11.30
2023-04-13T11:52:58.750Z,11.30
2023-04-13T11:55:26.255Z,11.50
2023-04-13T12:13:19.864Z,13.90
2023-04-13T14:30:24.936Z,16.70
2023-04-13T14:32:53.168Z,17.20
2023-04-13T14:35:20.232Z,16.60
2023-04-13T14:37:47.539Z,16.70
2023-04-13T14:40:17.030Z,17.00
2023-04-13T14:42:45.594Z,16.40
2023-04-13T14:45:12.597Z,16.60
2023-04-13T14:47:40.221Z,16.50
2023-04-13T14:50:09.043Z,16.50
2023-04-13T14:52:36.393Z,16.60
2023-04-13T14:55:04.307Z,16.90
2023-04-13T14:57:32.353Z,16.60
2023-04-13T14:59:59.203Z,16.40
2023-04-13T15:02:28.639Z,16.80
2023-04-13T15:04:56.073Z,16.60
2023-04-13T15:07:29.924Z,16.80
2023-04-13T15:09:58.899Z,17.00
2023-04-13T15:12:25.881Z,16.60
2023-04-13T15:14:52.808Z,16.40
2023-04-13T15:17:21.145Z,15.90
2023-04-13T15:19:47.959Z,15.70
2023-04-13T15:22:14.770Z,15.70
2023-04-13T15:24:41.640Z,15.40
2023-04-13T15:27:11.613Z,15.10
2023-04-13T15:29:38.688Z,14.80
2023-04-13T15:32:05.760Z,14.90
2023-04-13T15:34:32.581Z,15.10
2023-04-13T15:36:59.461Z,15.40
2023-04-13T15:39:26.563Z,15.80
2023-04-13T15:41:55.160Z,15.90
2023-04-13T15:44:22.242Z,15.70
2023-04-13T15:46:49.001Z,15.30
2023-04-13T15:49:15.844Z,15.70
2023-04-13T15:51:42.692Z,16.10
2023-04-13T15:54:09.480Z,16.10
2023-04-13T15:56:36.638Z,16.40
2023-04-13T15:59:03.555Z,15.90
2023-04-13T16:01:45.257Z,16.30
2023-04-13T16:04:12.435Z,16.30
2023-04-13T16:06:39.789Z,15.80
2023-04-13T16:09:09.703Z,15.90
2023-04-13T16:11:40.178Z,15.90
2023-04-13T16:14:10.201Z,15.70
2023-04-13T16:16:53.313Z,15.70
2023-04-13T16:19:21.049Z,15.60
2023-04-13T16:21:50.822Z,15.60
2023-04-13T16:24:21.377Z,15.60
2023-04-13T16:26:48.724Z,15.50
2023-04-13T16:29:15.601Z,15.70
2023-04-13T16:31:44.977Z,15.10
2023-04-13T16:34:24.430Z,14.70
2023-04-13T16:36:52.708Z,14.70
2023-04-13T16:39:19.494Z,14.80
2023-04-13T16:41:46.296Z,14.90
2023-04-13T16:44:13.135Z,14.80
2023-04-13T16:46:40.020Z,14.90
2023-04-13T16:49:06.910Z,14.80
2023-04-13T16:51:33.731Z,14.50
2023-04-13T16:54:00.704Z,14.40
2023-04-13T16:56:30.422Z,14.20
2023-04-13T16:58:57.708Z,14.40
2023-04-13T17:01:25.713Z,14.40
2023-04-13T17:03:53.383Z,14.30
2023-04-13T17:06:21.330Z,14.30
2023-04-13T17:08:48.715Z,14.20
2023-04-13T17:11:15.672Z,14.40
2023-04-13T17:13:42.537Z,14.40
2023-04-13T17:16:10.340Z,14.30
2023-04-13T17:18:37.528Z,14.50
2023-04-13T17:21:04.558Z,14.40
2023-04-13T17:23:31.568Z,14.40
2023-04-13T17:25:58.438Z,14.40
2023-04-13T17:28:25.593Z,14.30
2023-04-13T17:30:52.497Z,14.40
2023-04-13T17:33:19.325Z,14.40
2023-04-13T17:35:46.391Z,14.40
2023-04-13T17:38:13.204Z,14.30
2023-04-13T17:40:39.975Z,14.10
2023-04-13T17:43:08.659Z,14.00
2023-04-13T17:45:36.442Z,13.90
2023-04-13T17:48:05.173Z,13.80
2023-04-13T17:50:32.863Z,13.70
2023-04-13T17:53:04.248Z,13.70
2023-04-13T17:55:31.590Z,13.70
2023-04-13T17:57:58.435Z,13.60
2023-04-13T18:00:26.980Z,13.60
2023-04-13T18:02:54.272Z,13.50
2023-04-13T18:05:21.817Z,13.50
2023-04-13T18:07:48.824Z,13.40
2023-04-13T18:10:15.770Z,13.30
2023-04-13T18:12:42.615Z,13.40
2023-04-13T18:15:10.495Z,13.30
2023-04-13T18:17:38.786Z,13.20
2023-04-13T18:20:06.429Z,13.10
2023-04-13T18:22:33.470Z,13.00
2023-04-13T18:25:00.539Z,13.10
2023-04-13T18:27:27.737Z,13.10
2023-04-13T18:29:55.636Z,13.00
2023-04-13T18:32:23.499Z,13.00
2023-04-13T18:34:50.429Z,12.90
2023-04-13T18:37:17.283Z,12.80
2023-04-13T18:39:44.964Z,12.80
2023-04-13T18:42:12.064Z,12.80
2023-04-13T18:44:41.938Z,12.80
2023-04-13T18:47:08.829Z,12.80
2023-04-13T18:49:35.965Z,12.70
2023-04-13T18:52:02.940Z,12.60
2023-04-13T18:54:30.013Z,12.60
2023-04-13T18:56:56.753Z,12.50
2023-04-13T18:59:23.545Z,12.30
2023-04-13T19:01:51.236Z,12.30
2023-04-13T19:04:18.106Z,12.30
2023-04-13T19:06:44.922Z,12.20
2023-04-13T19:09:11.759Z,12.20
2023-04-13T19:11:46.591Z,12.10
2023-04-13T19:14:13.396Z,12.00
2023-04-13T19:16:41.563Z,12.00
2023-04-13T19:19:09.042Z,11.90
2023-04-13T19:21:35.897Z,11.80
2023-04-13T19:24:02.938Z,11.70
2023-04-13T19:26:30.503Z,11.70
2023-04-13T19:28:57.443Z,11.70
2023-04-13T19:31:24.443Z,11.60
2023-04-13T19:33:52.158Z,11.60
2023-04-13T19:36:18.944Z,11.60
2023-04-13T19:38:47.010Z,11.50
2023-04-13T19:41:13.961Z,11.60
2023-04-13T19:43:40.834Z,11.50
2023-04-13T19:46:07.776Z,11.50
2023-04-13T19:48:34.639Z,11.40
2023-04-13T19:51:01.937Z,11.40
2023-04-13T19:53:28.738Z,11.40
2023-04-13T19:56:00.166Z,11.20
2023-04-13T19:58:29.306Z,11.30
2023-04-13T20:00:57.634Z,11.30
2023-04-13T20:03:26.161Z,11.20
